NCAR-RAP Real-Time Weather Data

Output produced by METARs form (10 April 2020  07:14 UTC)
found at http://weather.rap.ucar.edu/surface/
 
KEET 100653Z AUTO 34006G15KT 10SM FEW070 SCT090 17/02 A2986 RMK AO2 SLP104 T01720017
KEET 100553Z AUTO 34006G15KT 10SM BKN070 BKN085 17/03 A2987 RMK AO2 SLP111 T01720028 10211 20172 402560172 53001
KEET 100453Z AUTO 35005KT 10SM SCT075 18/05 A2986 RMK AO2 SLP107 T01780050
KEET 100353Z AUTO 35005KT 10SM CLR 18/06 A2987 RMK AO2 SLP110 T01830061
KEET 100253Z AUTO 35006KT 10SM CLR 19/07 A2987 RMK AO2 SLP110 T01940072 53020
KEET 100153Z AUTO 33006KT 10SM CLR 21/09 A2985 RMK AO2 SLP103 T02060089
KEET 100053Z AUTO 00000KT 10SM CLR 21/11 A2982 RMK AO2 SLP092 T02060111
KEET 092353Z AUTO 00000KT 10SM CLR 21/11 A2981 RMK AO2 SLP089 T02110106 10256 20211 56004
KEET 092253Z AUTO 32006KT 10SM CLR 23/09 A2981 RMK AO2 SLP089 T02330089
KEET 092153Z AUTO VRB04KT 10SM CLR 24/11 A2981 RMK AO2 SLP087 T02440111
KEET 092053Z AUTO VRB06KT 10SM CLR 25/12 A2982 RMK AO2 SLP093 T02500122 58016
KEET 091953Z AUTO 33006G14KT 10SM CLR 25/12 A2984 RMK AO2 SLP100 T02500122
KEET 091853Z AUTO 33007KT 290V010 10SM CLR 25/14 A2986 RMK AO2 SLP106 T02500144
KEET 091753Z AUTO VRB06KT 10SM CLR 24/16 A2987 RMK AO2 SLP109 60003 T02390156 10239 20172 50003
KEET 091653Z AUTO 33008KT 10SM FEW026 23/16 A2988 RMK AO2 SLP113 T02280161
KEET 091609Z AUTO 33009KT 10SM FEW024 22/16 A2989 RMK AO2 T02220161
KEET 091553Z AUTO 36010G16KT 10SM BKN025 22/17 A2989 RMK AO2 SLP115 T02220167
KEET 091546Z AUTO 35008KT 10SM BKN023 22/16 A2989 RMK AO2 T02170161
KEET 091453Z AUTO 34007G16KT 300V010 10SM SCT018 21/17 A2986 RMK AO2 SLP106 60003 T02110167 55000
KEET 091353Z AUTO 31008KT 10SM CLR 20/16 A2985 RMK AO2 SLP101 T02000161
KEET 091253Z AUTO 30004KT 10SM CLR 17/16 A2983 RMK AO2 RAE22 SLP097 P0003 T01720161
KEET 091206Z AUTO 17003KT 5SM -RA BR OVC100 18/16 A2984 RMK AO2 LTG DSNT SE AND S PRESFR P0002 T01780161
KEET 091153Z AUTO 25003KT 6SM VCTS -RA BR FEW075 OVC100 18/16 A2986 RMK AO2 LTG DSNT SW RAB24 TSB24E39 SLP107 P0002 60002 70004 T01780156 10206 20178 53037
KEET 091145Z AUTO 25007KT 230V290 6SM VCTS -RA BR FEW065 SCT075 OVC100 18/16 A2987 RMK AO2 LTG DSNT SW AND W RAB24 TSB24E39 PRESRR P0002 T01780161
KEET 091130Z AUTO 00000KT 10SM -TSRA SCT060 BKN080 OVC100 19/15 A2982 RMK AO2 LTG DSNT W RAB24 TSB24 P0000 T01940150
KEET 091118Z AUTO VRB03KT 10SM VCTS SCT060 BKN080 19/16 A2982 RMK AO2 LTG DSNT W-NE T01890156
KEET 091053Z AUTO 00000KT 10SM CLR 18/16 A2979 RMK AO2 LTG DSNT N SLP082 T01830156
KEET 090953Z AUTO 36007KT 10SM FEW019 21/17 A2979 RMK AO2 RAB03E21 SLP081 P0000 T02060167
KEET 090931Z AUTO 32008KT 7SM SCT012 SCT018 21/19 A2978 RMK AO2 RAB03E21 P0000 T02060189
KEET 090853Z AUTO 17003KT 7SM SCT007 BKN012 OVC017 19/19 A2975 RMK AO2 SLP070 T01940189 50002
KEET 090820Z AUTO 00000KT 8SM OVC009 19/19 A2977 RMK AO2 CIG 006V013 T01940189